createdAt,value
2017-12-21T00:01:40.480Z,5.39
2017-12-21T00:02:41.208Z,5.40
2017-12-21T00:04:33.680Z,5.34
2017-12-21T00:05:34.022Z,5.37
2017-12-21T00:07:27.701Z,5.39
2017-12-21T00:08:26.691Z,5.37
2017-12-21T00:10:19.586Z,5.41
2017-12-21T00:11:20.437Z,5.39
2017-12-21T00:13:13.220Z,5.41
2017-12-21T00:14:12.597Z,5.41
2017-12-21T00:16:06.209Z,5.34
2017-12-21T00:17:06.113Z,5.39
2017-12-21T00:19:00.348Z,5.41
2017-12-21T00:19:59.811Z,5.40
2017-12-21T00:21:53.625Z,5.43
2017-12-21T00:22:52.178Z,5.50
2017-12-21T00:24:51.649Z,5.52
2017-12-21T00:25:51.728Z,5.40
2017-12-21T00:27:45.679Z,5.47
2017-12-21T00:28:46.268Z,5.41
2017-12-21T00:30:42.712Z,5.47
2017-12-21T00:31:40.905Z,5.44
2017-12-21T00:33:34.950Z,5.47
2017-12-21T00:34:34.850Z,5.47
2017-12-21T00:36:27.414Z,5.47
2017-12-21T00:37:26.933Z,5.47
2017-12-21T00:39:19.757Z,5.47
2017-12-21T00:40:20.973Z,5.39
2017-12-21T00:42:11.904Z,5.37
2017-12-21T00:43:12.470Z,5.41
2017-12-21T00:45:05.888Z,5.41
2017-12-21T00:46:06.870Z,5.43
2017-12-21T00:47:59.290Z,5.44
2017-12-21T00:49:00.256Z,5.41
2017-12-21T00:50:53.935Z,5.48
2017-12-21T00:51:53.899Z,5.48
2017-12-21T00:53:46.174Z,5.48
2017-12-21T00:54:48.256Z,5.47
2017-12-21T00:56:40.046Z,5.48
2017-12-21T00:57:39.770Z,5.44
2017-12-21T00:59:33.076Z,5.48
2017-12-21T01:00:32.469Z,5.41
2017-12-21T01:02:25.818Z,5.41
2017-12-21T01:03:25.311Z,5.48
2017-12-21T01:05:17.020Z,5.48
2017-12-21T01:06:17.568Z,5.44
2017-12-21T01:08:11.723Z,5.50
2017-12-21T01:09:11.980Z,5.40
2017-12-21T01:11:06.731Z,5.44
2017-12-21T01:12:05.064Z,5.50
2017-12-21T01:13:57.986Z,5.41
2017-12-21T01:14:57.904Z,5.44
2017-12-21T01:16:51.034Z,5.48
2017-12-21T01:17:51.607Z,5.44
2017-12-21T01:19:45.003Z,5.47
2017-12-21T01:20:43.137Z,5.43
2017-12-21T01:22:37.780Z,5.48
2017-12-21T01:23:36.983Z,5.48
2017-12-21T01:25:34.929Z,5.44
2017-12-21T01:26:30.208Z,5.48
2017-12-21T01:28:24.916Z,5.48
2017-12-21T01:29:24.452Z,5.48
2017-12-21T01:31:18.133Z,5.43
2017-12-21T01:33:58.208Z,5.51
2017-12-21T01:36:15.597Z,5.51
2017-12-21T01:37:28.731Z,5.51
2017-12-21T01:39:09.846Z,5.47
2017-12-21T01:40:09.557Z,5.48
2017-12-21T01:42:03.154Z,5.51
2017-12-21T01:43:03.461Z,5.52
2017-12-21T01:44:54.949Z,5.54
2017-12-21T01:45:56.143Z,5.48
2017-12-21T01:47:49.095Z,5.52
2017-12-21T01:48:49.760Z,5.48
2017-12-21T01:50:41.778Z,5.52
2017-12-21T01:51:41.721Z,5.52
2017-12-21T01:53:34.980Z,5.48
2017-12-21T01:54:35.426Z,5.50
2017-12-21T01:56:27.650Z,5.51
2017-12-21T01:57:27.491Z,5.52
2017-12-21T01:59:19.995Z,5.50
2017-12-21T02:00:19.488Z,5.50
2017-12-21T02:02:12.335Z,5.54
2017-12-21T02:03:13.939Z,5.55
2017-12-21T02:05:06.087Z,5.55
2017-12-21T02:08:01.898Z,5.55
2017-12-21T02:09:00.727Z,5.54
2017-12-21T02:10:55.424Z,5.61
2017-12-21T02:11:54.151Z,5.55
2017-12-21T02:13:46.532Z,5.59
2017-12-21T02:14:47.400Z,5.50
2017-12-21T02:16:39.592Z,5.65
2017-12-21T02:17:39.702Z,5.61
2017-12-21T02:19:32.536Z,5.57
2017-12-21T02:20:33.262Z,5.58
2017-12-21T02:22:26.596Z,5.66
2017-12-21T02:23:26.198Z,5.62
2017-12-21T02:25:19.135Z,5.70
2017-12-21T02:26:18.935Z,5.62
2017-12-21T02:28:12.385Z,5.62
2017-12-21T02:29:11.899Z,5.58
2017-12-21T02:31:05.183Z,5.67
2017-12-21T02:32:05.572Z,5.61
2017-12-21T02:33:58.739Z,5.62
2017-12-21T02:34:58.275Z,5.65
2017-12-21T02:36:49.838Z,5.66
2017-12-21T02:37:53.481Z,5.61
2017-12-21T02:39:47.261Z,5.67
2017-12-21T02:40:44.918Z,5.66
2017-12-21T02:42:39.968Z,5.70
2017-12-21T02:43:41.057Z,5.62
2017-12-21T02:45:30.286Z,5.69
2017-12-21T02:48:22.910Z,5.69
2017-12-21T02:49:26.400Z,5.66
2017-12-21T02:51:19.066Z,5.62
2017-12-21T02:53:31.470Z,5.69
2017-12-21T02:54:29.620Z,5.66
2017-12-21T02:56:21.424Z,5.72
2017-12-21T02:57:23.161Z,5.70
2017-12-21T02:59:14.917Z,5.77
2017-12-21T03:00:14.627Z,5.69
2017-12-21T03:02:07.019Z,5.70
2017-12-21T03:03:07.492Z,5.62
2017-12-21T03:04:59.795Z,5.66
2017-12-21T03:05:59.763Z,5.75
2017-12-21T03:07:52.195Z,5.76
2017-12-21T03:08:52.149Z,5.76
2017-12-21T03:10:45.242Z,5.72
2017-12-21T03:11:45.114Z,5.76
2017-12-21T03:13:37.800Z,5.76
2017-12-21T03:14:41.601Z,5.72
2017-12-21T03:16:30.248Z,5.72
2017-12-21T03:17:31.187Z,5.75
2017-12-21T03:19:23.047Z,5.70
2017-12-21T03:20:24.435Z,5.67
2017-12-21T03:22:16.311Z,5.67
2017-12-21T03:23:16.165Z,5.79
2017-12-21T03:25:08.920Z,5.73
2017-12-21T03:26:09.275Z,5.76
2017-12-21T03:28:01.668Z,5.70
2017-12-21T03:29:02.631Z,5.73
2017-12-21T03:30:55.073Z,5.75
2017-12-21T03:31:54.101Z,5.70
2017-12-21T03:33:47.529Z,5.70
2017-12-21T03:34:48.004Z,5.73
2017-12-21T03:36:40.864Z,5.72
2017-12-21T03:37:42.723Z,5.76
2017-12-21T03:39:37.513Z,5.69
2017-12-21T03:40:37.846Z,5.67
2017-12-21T03:42:30.263Z,5.79
2017-12-21T03:43:29.729Z,5.70
2017-12-21T03:45:22.651Z,5.66
2017-12-21T03:46:23.097Z,5.66
2017-12-21T03:48:14.981Z,5.77
2017-12-21T03:49:15.755Z,5.73
2017-12-21T03:51:06.922Z,5.73
2017-12-21T03:52:07.638Z,5.67
2017-12-21T03:53:59.981Z,5.66
2017-12-21T03:55:00.839Z,5.77
2017-12-21T03:56:52.281Z,5.70
2017-12-21T03:57:52.578Z,5.70
2017-12-21T03:59:45.239Z,5.73
2017-12-21T04:00:45.670Z,5.66
2017-12-21T04:02:37.516Z,5.72
2017-12-21T04:03:39.226Z,5.70
2017-12-21T04:05:31.129Z,5.77
2017-12-21T04:06:31.604Z,5.67
2017-12-21T04:08:22.912Z,5.67
2017-12-21T04:09:23.214Z,5.75
2017-12-21T04:11:16.149Z,5.72
2017-12-21T04:12:16.379Z,5.73
2017-12-21T04:14:09.250Z,5.76
2017-12-21T04:15:09.052Z,5.73
2017-12-21T04:17:01.461Z,5.73
2017-12-21T04:18:01.960Z,5.65
2017-12-21T04:19:54.484Z,5.70
2017-12-21T04:20:54.390Z,5.69
2017-12-21T04:22:46.790Z,5.67
2017-12-21T04:23:46.894Z,5.75
2017-12-21T04:25:39.219Z,5.70
2017-12-21T04:26:40.372Z,5.72
2017-12-21T04:28:33.909Z,5.76
2017-12-21T04:29:34.361Z,5.73
2017-12-21T04:31:25.376Z,5.77
2017-12-21T04:32:27.206Z,5.67
2017-12-21T04:34:18.500Z,5.73
2017-12-21T04:35:17.743Z,5.76
2017-12-21T04:37:11.606Z,5.73
2017-12-21T04:38:12.121Z,5.72
2017-12-21T04:40:03.869Z,5.72
2017-12-21T04:41:04.344Z,5.75
2017-12-21T04:42:58.661Z,5.77
2017-12-21T04:43:57.387Z,5.72
2017-12-21T04:45:49.445Z,5.72
2017-12-21T04:46:50.038Z,5.73
2017-12-21T04:48:41.751Z,5.75
2017-12-21T04:49:42.151Z,5.72
2017-12-21T04:51:34.958Z,5.69
2017-12-21T04:52:35.929Z,5.73
2017-12-21T04:54:26.790Z,5.75
2017-12-21T04:55:27.099Z,5.73
2017-12-21T04:57:19.316Z,5.76
2017-12-21T04:58:20.238Z,5.73
2017-12-21T05:00:12.195Z,5.67
2017-12-21T05:01:12.128Z,5.73
2017-12-21T05:03:05.216Z,5.79
2017-12-21T05:04:05.779Z,5.72
2017-12-21T05:05:58.721Z,5.76
2017-12-21T05:06:58.858Z,5.75
2017-12-21T05:08:51.191Z,5.77
2017-12-21T05:09:51.198Z,5.75
2017-12-21T05:11:45.168Z,5.70
2017-12-21T05:12:45.180Z,5.75
2017-12-21T05:14:37.552Z,5.79
2017-12-21T05:15:38.371Z,5.75
2017-12-21T05:17:30.210Z,5.77
2017-12-21T05:18:30.123Z,5.70
2017-12-21T05:20:24.376Z,5.87
2017-12-21T05:21:24.648Z,5.82
2017-12-21T05:23:16.600Z,5.82
2017-12-21T05:24:17.038Z,5.79
2017-12-21T05:26:09.992Z,5.84
2017-12-21T05:27:11.726Z,5.79
2017-12-21T05:29:04.648Z,5.80
2017-12-21T05:30:03.460Z,5.87
2017-12-21T05:31:55.450Z,5.80
2017-12-21T05:32:56.032Z,5.75
2017-12-21T05:34:49.144Z,5.79
2017-12-21T05:35:48.752Z,5.90
2017-12-21T05:37:41.394Z,5.85
2017-12-21T05:38:41.306Z,5.85
2017-12-21T05:40:34.266Z,5.82
2017-12-21T05:41:34.456Z,5.75
2017-12-21T05:43:27.024Z,5.79
2017-12-21T05:44:27.130Z,5.82
2017-12-21T05:46:19.541Z,5.84
2017-12-21T05:47:20.160Z,5.84
2017-12-21T05:49:11.918Z,5.85
2017-12-21T05:50:12.519Z,5.84
2017-12-21T05:52:05.098Z,5.84
2017-12-21T05:53:05.137Z,5.80
2017-12-21T05:54:58.531Z,5.76
2017-12-21T05:55:58.782Z,5.80
2017-12-21T05:57:51.194Z,5.80
2017-12-21T05:58:51.479Z,5.87
2017-12-21T06:00:44.099Z,5.77
2017-12-21T06:01:44.560Z,5.85
2017-12-21T06:03:36.354Z,5.87
2017-12-21T06:04:36.470Z,5.87
2017-12-21T06:06:29.725Z,5.84
2017-12-21T06:07:30.426Z,5.79
2017-12-21T06:09:23.055Z,5.88
2017-12-21T06:10:22.449Z,5.76
2017-12-21T06:12:15.245Z,5.87
2017-12-21T06:13:15.521Z,5.80
2017-12-21T06:15:07.725Z,5.79
2017-12-21T06:16:08.041Z,5.87
2017-12-21T06:18:00.624Z,5.87
2017-12-21T06:19:01.788Z,5.80
2017-12-21T06:20:53.530Z,5.84
2017-12-21T06:21:53.870Z,5.80
2017-12-21T06:23:45.699Z,5.91
2017-12-21T06:24:45.999Z,5.77
2017-12-21T06:26:56.787Z,5.82
2017-12-21T06:27:39.979Z,5.88
2017-12-21T06:29:32.343Z,5.85
2017-12-21T06:30:32.122Z,5.91
2017-12-21T06:32:25.126Z,5.88
2017-12-21T06:33:26.603Z,5.87
2017-12-21T06:35:19.141Z,5.84
2017-12-21T06:36:18.693Z,5.80
2017-12-21T06:38:10.791Z,5.85
2017-12-21T06:39:11.318Z,5.80
2017-12-21T06:41:04.074Z,5.90
2017-12-21T06:42:03.509Z,5.85
2017-12-21T06:43:57.881Z,5.91
2017-12-21T06:44:57.355Z,5.88
2017-12-21T06:46:49.854Z,5.94
2017-12-21T06:47:50.396Z,5.90
2017-12-21T06:49:43.260Z,5.93
2017-12-21T06:50:44.118Z,5.90
2017-12-21T06:52:36.097Z,5.93
2017-12-21T06:53:37.210Z,5.93
2017-12-21T06:55:28.275Z,5.84
2017-12-21T06:56:28.614Z,5.82
2017-12-21T06:58:21.812Z,5.88
2017-12-21T06:59:22.470Z,5.93
2017-12-21T07:01:13.899Z,5.91
2017-12-21T07:02:13.561Z,5.90
2017-12-21T07:04:06.635Z,5.90
2017-12-21T07:05:07.107Z,5.88
2017-12-21T07:06:58.900Z,5.90
2017-12-21T07:07:58.966Z,5.85
2017-12-21T07:09:52.061Z,5.94
2017-12-21T07:10:51.763Z,5.90
2017-12-21T07:12:44.674Z,5.91
2017-12-21T07:13:44.470Z,5.90
2017-12-21T07:15:38.342Z,5.93
2017-12-21T07:16:37.357Z,5.88
2017-12-21T07:18:31.212Z,5.90
2017-12-21T07:19:32.372Z,5.90
2017-12-21T07:21:24.196Z,5.94
2017-12-21T07:22:25.048Z,5.90
2017-12-21T07:24:16.935Z,5.91
2017-12-21T07:25:16.812Z,5.90
2017-12-21T07:27:09.754Z,5.90
2017-12-21T07:28:10.466Z,5.91
2017-12-21T07:30:02.140Z,5.93
2017-12-21T07:31:02.193Z,5.93
2017-12-21T07:32:55.550Z,5.94
2017-12-21T07:33:56.425Z,5.85
2017-12-21T07:35:48.047Z,5.93
2017-12-21T07:36:48.670Z,5.88
2017-12-21T07:38:41.312Z,5.90
2017-12-21T07:39:41.834Z,5.88
2017-12-21T07:41:33.732Z,5.91
2017-12-21T07:42:34.971Z,5.95
2017-12-21T07:44:26.651Z,6.03
2017-12-21T07:45:27.221Z,5.94
2017-12-21T07:47:20.748Z,6.00
2017-12-21T07:48:20.495Z,5.95
2017-12-21T07:50:14.525Z,5.91
2017-12-21T07:51:14.092Z,5.95
2017-12-21T07:53:05.785Z,5.94
2017-12-21T07:54:07.059Z,5.90
2017-12-21T07:55:58.235Z,5.91
2017-12-21T07:57:00.370Z,5.91
2017-12-21T07:58:51.219Z,5.91
2017-12-21T07:59:53.339Z,5.94
2017-12-21T08:01:44.441Z,6.02
2017-12-21T08:02:45.131Z,6.02
2017-12-21T08:04:36.948Z,5.90
2017-12-21T08:05:36.766Z,6.03
2017-12-21T08:07:29.556Z,6.00
2017-12-21T08:08:29.754Z,5.98
2017-12-21T08:10:23.139Z,5.97
2017-12-21T08:11:23.611Z,6.00
2017-12-21T08:13:16.776Z,6.03
2017-12-21T08:14:17.703Z,5.98
2017-12-21T08:16:09.640Z,6.05
2017-12-21T08:17:10.179Z,6.06
2017-12-21T08:19:02.779Z,6.03
2017-12-21T08:20:04.134Z,6.03
2017-12-21T08:21:55.231Z,5.95
2017-12-21T08:22:56.202Z,6.00
2017-12-21T08:24:48.554Z,5.98
2017-12-21T08:25:48.941Z,6.00
2017-12-21T08:27:40.773Z,6.06
2017-12-21T08:28:41.605Z,6.02
2017-12-21T08:30:33.771Z,6.00
2017-12-21T08:31:34.899Z,6.05
2017-12-21T08:33:26.412Z,6.05
2017-12-21T08:34:26.827Z,6.03
2017-12-21T08:36:19.182Z,6.03
2017-12-21T08:37:19.485Z,6.05
2017-12-21T08:39:13.236Z,5.95
2017-12-21T08:40:14.181Z,6.05
2017-12-21T08:42:07.143Z,6.09
2017-12-21T08:43:08.321Z,6.08
2017-12-21T08:44:59.703Z,6.08
2017-12-21T08:46:01.618Z,6.09
2017-12-21T08:47:53.056Z,6.08
2017-12-21T08:48:53.926Z,6.06
2017-12-21T08:50:45.588Z,6.08
2017-12-21T08:51:46.713Z,6.02
2017-12-21T08:53:37.968Z,6.12
2017-12-21T08:54:37.860Z,6.08
2017-12-21T08:56:31.084Z,6.09
2017-12-21T08:57:30.815Z,5.97
2017-12-21T08:59:23.142Z,6.09
2017-12-21T09:00:24.160Z,6.12
2017-12-21T09:02:16.685Z,6.08
2017-12-21T09:03:16.591Z,6.12
2017-12-21T09:05:08.600Z,6.12
2017-12-21T09:06:08.556Z,6.12
2017-12-21T09:08:01.780Z,6.11
2017-12-21T09:09:01.298Z,6.13
2017-12-21T09:10:54.411Z,6.05
2017-12-21T09:11:55.586Z,6.06
2017-12-21T09:13:47.476Z,6.05
2017-12-21T09:14:48.707Z,6.16
2017-12-21T09:16:40.122Z,6.25
2017-12-21T09:17:39.945Z,6.25
2017-12-21T09:19:32.441Z,6.19
2017-12-21T09:20:33.804Z,6.21
2017-12-21T09:22:25.679Z,6.16
2017-12-21T09:23:26.093Z,6.19
2017-12-21T09:25:18.630Z,6.19
2017-12-21T09:26:19.328Z,6.16
2017-12-21T09:28:11.111Z,6.21
2017-12-21T09:29:12.228Z,6.25
2017-12-21T09:31:04.061Z,6.24
2017-12-21T09:32:04.818Z,6.21
2017-12-21T09:33:57.140Z,6.19
2017-12-21T09:34:57.696Z,6.24
2017-12-21T09:36:49.649Z,6.27
2017-12-21T09:37:50.253Z,6.19
2017-12-21T09:39:42.639Z,6.25
2017-12-21T09:40:43.720Z,6.21
2017-12-21T09:42:35.410Z,6.28
2017-12-21T09:43:37.150Z,6.28
2017-12-21T09:45:28.579Z,6.27
2017-12-21T09:46:28.299Z,6.24
2017-12-21T09:48:21.251Z,6.27
2017-12-21T09:49:22.121Z,6.25
2017-12-21T09:51:14.620Z,6.25
2017-12-21T09:52:15.520Z,6.28
2017-12-21T09:54:06.726Z,6.31
2017-12-21T09:55:06.596Z,6.24
2017-12-21T09:57:00.843Z,6.21
2017-12-21T09:58:00.960Z,6.31
2017-12-21T09:59:53.724Z,6.31
2017-12-21T10:00:54.192Z,6.27
2017-12-21T10:02:46.559Z,6.32
2017-12-21T10:03:46.539Z,6.28
2017-12-21T10:05:40.133Z,6.28
2017-12-21T10:06:40.486Z,6.24
2017-12-21T10:08:34.215Z,6.24
2017-12-21T10:09:33.765Z,6.31
2017-12-21T10:11:26.888Z,6.30
2017-12-21T10:12:26.818Z,6.30
2017-12-21T10:14:19.462Z,6.27
2017-12-21T10:15:19.912Z,6.32
2017-12-21T10:17:11.999Z,6.30
2017-12-21T10:18:12.210Z,6.25
2017-12-21T10:20:05.000Z,6.32
2017-12-21T10:21:05.100Z,6.34
2017-12-21T10:22:57.742Z,6.30
2017-12-21T10:23:57.814Z,6.27
2017-12-21T10:25:50.890Z,6.32
2017-12-21T10:26:50.974Z,6.35
2017-12-21T10:28:43.796Z,6.31
2017-12-21T10:29:43.637Z,6.35
2017-12-21T10:31:36.789Z,6.40
2017-12-21T10:32:36.072Z,6.43
2017-12-21T10:34:28.785Z,6.38
2017-12-21T10:35:28.769Z,6.45
2017-12-21T10:37:21.810Z,6.40
2017-12-21T10:38:21.760Z,6.43
2017-12-21T10:40:15.406Z,6.40
2017-12-21T10:41:15.659Z,6.43
2017-12-21T10:43:07.829Z,6.47
2017-12-21T10:44:08.398Z,6.45
2017-12-21T10:46:00.368Z,6.47
2017-12-21T10:47:02.024Z,6.52
2017-12-21T10:48:52.599Z,6.49
2017-12-21T10:49:53.180Z,6.46
2017-12-21T10:51:45.944Z,6.47
2017-12-21T10:52:46.341Z,6.49
2017-12-21T10:54:38.985Z,6.50
2017-12-21T10:55:38.793Z,6.53
2017-12-21T10:57:31.599Z,6.55
2017-12-21T10:58:31.634Z,6.50
2017-12-21T11:00:24.763Z,6.60
2017-12-21T11:01:25.840Z,6.55
2017-12-21T11:03:17.554Z,6.50
2017-12-21T11:04:17.331Z,6.50
2017-12-21T11:06:11.271Z,6.52
2017-12-21T11:07:11.039Z,6.52
2017-12-21T11:09:03.830Z,6.60
2017-12-21T11:10:04.949Z,6.49
2017-12-21T11:11:56.799Z,6.57
2017-12-21T11:12:57.769Z,6.60
2017-12-21T11:14:49.082Z,6.61
2017-12-21T11:15:49.947Z,6.63
2017-12-21T11:17:42.354Z,6.53
2017-12-21T11:20:09.852Z,6.70
2017-12-21T11:22:29.347Z,6.61
2017-12-21T11:23:29.184Z,6.55
2017-12-21T11:25:15.439Z,6.53
2017-12-21T11:26:16.271Z,6.61
2017-12-21T11:28:07.885Z,6.52
2017-12-21T11:29:08.030Z,6.61
2017-12-21T11:31:00.479Z,6.56
2017-12-21T11:32:01.090Z,6.56
2017-12-21T11:33:53.603Z,6.52
2017-12-21T11:34:54.413Z,6.68
2017-12-21T11:36:46.652Z,6.63
2017-12-21T11:37:46.137Z,6.63
2017-12-21T11:39:40.514Z,6.56
2017-12-21T11:40:39.928Z,6.63
2017-12-21T11:42:32.363Z,6.57
2017-12-21T11:43:31.278Z,6.60
2017-12-21T11:45:24.590Z,6.60
2017-12-21T11:46:25.556Z,6.53
2017-12-21T11:48:17.984Z,6.61
2017-12-21T11:49:19.333Z,6.56
2017-12-21T11:51:09.878Z,6.61
2017-12-21T11:52:12.363Z,6.60
2017-12-21T11:54:03.387Z,6.55
2017-12-21T11:55:03.298Z,6.57
2017-12-21T11:56:55.530Z,6.61
2017-12-21T11:57:56.755Z,6.57
2017-12-21T11:59:48.587Z,6.53
2017-12-21T12:00:49.434Z,6.60
2017-12-21T12:02:41.700Z,6.64
2017-12-21T12:03:42.302Z,6.53
2017-12-21T12:05:34.638Z,6.64
2017-12-21T12:06:35.057Z,6.67
2017-12-21T12:08:26.857Z,6.61
2017-12-21T12:09:27.665Z,6.63
2017-12-21T12:11:19.592Z,6.61
2017-12-21T12:12:20.433Z,6.67
2017-12-21T12:14:13.855Z,6.61
2017-12-21T12:15:14.695Z,6.61
2017-12-21T12:17:07.668Z,6.55
2017-12-21T12:18:06.365Z,6.63
2017-12-21T12:20:01.508Z,6.56
2017-12-21T12:21:01.771Z,6.63
2017-12-21T12:22:53.158Z,6.53
2017-12-21T12:23:52.922Z,6.61
2017-12-21T12:25:46.140Z,6.60
2017-12-21T12:26:47.099Z,6.64
2017-12-21T12:28:39.145Z,6.57
2017-12-21T12:29:39.931Z,6.65
2017-12-21T12:31:31.555Z,6.61
2017-12-21T12:32:31.309Z,6.52
2017-12-21T12:34:25.345Z,6.60
2017-12-21T12:35:25.259Z,6.65
2017-12-21T12:37:18.165Z,6.63
2017-12-21T12:38:17.482Z,6.60
2017-12-21T12:40:11.237Z,6.71
2017-12-21T12:41:10.736Z,6.65
2017-12-21T12:43:03.112Z,6.57
2017-12-21T12:44:03.821Z,6.55
2017-12-21T12:45:57.753Z,6.61
2017-12-21T12:46:58.013Z,6.63
2017-12-21T12:48:48.943Z,6.73
2017-12-21T12:49:50.443Z,6.65
2017-12-21T12:51:43.000Z,6.64
2017-12-21T12:52:43.163Z,6.67
2017-12-21T12:54:34.323Z,6.67
2017-12-21T12:55:34.946Z,6.64
2017-12-21T12:57:28.316Z,6.68
2017-12-21T12:58:28.485Z,6.65
2017-12-21T13:00:23.338Z,6.63
2017-12-21T13:03:27.640Z,6.63
2017-12-21T13:05:37.899Z,6.64
2017-12-21T13:06:37.876Z,6.61
2017-12-21T13:08:31.390Z,6.64
2017-12-21T13:09:32.466Z,6.64
2017-12-21T13:11:25.581Z,6.67
2017-12-21T13:12:25.122Z,6.65
2017-12-21T13:14:17.689Z,6.70
2017-12-21T13:15:18.061Z,6.64
2017-12-21T13:17:10.168Z,6.68
2017-12-21T13:18:09.171Z,6.71
2017-12-21T13:20:02.444Z,6.67
2017-12-21T13:21:01.982Z,6.67
2017-12-21T13:22:55.531Z,6.68
2017-12-21T13:23:54.961Z,6.67
2017-12-21T13:25:47.207Z,6.70
2017-12-21T13:26:48.276Z,6.71
2017-12-21T13:28:41.269Z,6.71
2017-12-21T13:29:40.697Z,6.65
2017-12-21T13:31:33.828Z,6.67
2017-12-21T13:32:34.505Z,6.67
2017-12-21T13:34:27.594Z,6.73
2017-12-21T13:35:26.051Z,6.68
2017-12-21T13:37:19.320Z,6.70
2017-12-21T13:38:20.469Z,6.68
2017-12-21T13:40:13.227Z,6.68
2017-12-21T13:41:14.370Z,6.67
2017-12-21T13:43:05.580Z,6.74
2017-12-21T13:44:05.958Z,6.70
2017-12-21T13:45:58.690Z,6.67
2017-12-21T13:46:58.692Z,6.64
2017-12-21T13:48:51.242Z,6.64
2017-12-21T13:49:50.961Z,6.70
2017-12-21T13:51:42.936Z,6.65
2017-12-21T13:52:43.054Z,6.64
2017-12-21T13:54:36.534Z,6.67
2017-12-21T13:55:36.443Z,6.73
2017-12-21T13:57:29.225Z,6.68
2017-12-21T13:58:29.700Z,6.64
2017-12-21T14:00:21.311Z,6.73
2017-12-21T14:01:21.453Z,6.65
2017-12-21T14:03:14.547Z,6.67
2017-12-21T14:04:14.918Z,6.65
2017-12-21T14:06:07.496Z,6.63
2017-12-21T14:07:06.934Z,6.70
2017-12-21T14:09:03.520Z,6.67
2017-12-21T14:10:03.722Z,6.68
2017-12-21T14:11:55.954Z,6.78
2017-12-21T14:12:54.979Z,6.64
2017-12-21T14:14:47.138Z,6.78
2017-12-21T14:15:47.553Z,6.65
2017-12-21T14:17:41.263Z,6.82
2017-12-21T14:18:40.781Z,6.64
2017-12-21T14:20:35.835Z,6.83
2017-12-21T14:21:34.975Z,6.86
2017-12-21T14:23:27.904Z,6.67
2017-12-21T14:24:27.897Z,6.82
2017-12-21T14:26:22.257Z,6.79
2017-12-21T14:27:22.206Z,6.81
2017-12-21T14:29:17.433Z,6.79
2017-12-21T14:30:17.695Z,6.68
2017-12-21T14:32:11.343Z,6.65
2017-12-21T14:33:11.632Z,6.75
2017-12-21T14:35:04.437Z,6.75
2017-12-21T14:36:04.747Z,6.73
2017-12-21T14:37:58.526Z,6.82
2017-12-21T14:39:00.418Z,6.79
2017-12-21T14:40:52.882Z,6.82
2017-12-21T14:41:52.134Z,6.81
2017-12-21T14:43:45.743Z,6.74
2017-12-21T14:44:45.733Z,6.78
2017-12-21T14:46:37.993Z,6.79
2017-12-21T14:47:38.881Z,6.83
2017-12-21T14:49:32.766Z,6.78
2017-12-21T14:52:31.206Z,6.78
2017-12-21T14:55:20.506Z,6.75
2017-12-21T14:56:21.334Z,6.85
2017-12-21T14:58:16.054Z,6.78
2017-12-21T14:59:13.598Z,6.85
2017-12-21T15:01:08.327Z,6.81
2017-12-21T15:02:09.057Z,6.83
2017-12-21T15:04:01.822Z,6.81
2017-12-21T15:05:02.093Z,6.82
2017-12-21T15:06:53.997Z,6.79
2017-12-21T15:07:53.383Z,6.82
2017-12-21T15:09:49.448Z,6.74
2017-12-21T15:10:51.298Z,6.81
2017-12-21T15:12:41.924Z,6.75
2017-12-21T15:13:42.321Z,6.79
2017-12-21T15:15:40.331Z,6.74
2017-12-21T15:16:37.103Z,6.82
2017-12-21T15:18:30.385Z,6.81
2017-12-21T15:19:31.630Z,6.67
2017-12-21T15:21:23.992Z,6.83
2017-12-21T15:22:24.683Z,6.75
2017-12-21T15:24:15.882Z,6.82
2017-12-21T15:25:16.182Z,6.78
2017-12-21T15:27:08.840Z,6.78
2017-12-21T15:28:10.099Z,6.85
2017-12-21T15:30:02.304Z,6.83
2017-12-21T15:31:03.240Z,6.86
2017-12-21T15:32:55.086Z,6.79
2017-12-21T15:33:55.996Z,6.79
2017-12-21T15:35:50.224Z,6.81
2017-12-21T15:36:49.187Z,6.79
2017-12-21T15:38:42.361Z,6.81
2017-12-21T15:39:43.355Z,6.81
2017-12-21T15:41:34.336Z,6.79
2017-12-21T15:42:35.083Z,6.78
2017-12-21T15:44:27.832Z,6.78
2017-12-21T15:47:20.271Z,6.78
2017-12-21T15:48:20.985Z,6.82
2017-12-21T15:50:13.696Z,6.83
2017-12-21T15:52:27.544Z,6.75
2017-12-21T15:53:28.165Z,6.79
2017-12-21T15:55:19.374Z,6.78
2017-12-21T15:56:22.470Z,6.82
2017-12-21T15:58:14.492Z,6.79
2017-12-21T15:59:13.040Z,6.78
2017-12-21T16:01:06.131Z,6.82
2017-12-21T16:02:06.123Z,6.78
2017-12-21T16:03:59.006Z,6.79
2017-12-21T16:04:58.801Z,6.79
2017-12-21T16:06:54.894Z,6.78
2017-12-21T16:07:55.574Z,6.81
2017-12-21T16:09:48.204Z,6.67
2017-12-21T16:10:47.989Z,6.78
2017-12-21T16:12:51.094Z,6.70
2017-12-21T16:13:42.946Z,6.65
2017-12-21T16:15:36.408Z,6.67
2017-12-21T16:16:36.690Z,6.68
2017-12-21T16:18:30.121Z,6.75
2017-12-21T16:19:28.884Z,6.64
2017-12-21T16:21:21.920Z,6.78
2017-12-21T16:22:21.730Z,6.65
2017-12-21T16:24:14.817Z,6.79
2017-12-21T16:25:15.209Z,6.78
2017-12-21T16:27:08.476Z,6.70
2017-12-21T16:28:07.513Z,6.65
2017-12-21T16:30:00.460Z,6.73
2017-12-21T16:31:00.279Z,6.73
2017-12-21T16:32:53.078Z,6.74
2017-12-21T16:33:53.258Z,6.71
2017-12-21T16:35:45.673Z,6.75
2017-12-21T16:36:45.860Z,6.64
2017-12-21T16:38:38.787Z,6.81
2017-12-21T16:39:39.430Z,6.67
2017-12-21T16:41:31.910Z,6.81
2017-12-21T16:42:31.986Z,6.67
2017-12-21T16:44:24.319Z,6.78
2017-12-21T16:45:24.188Z,6.65
2017-12-21T16:47:18.296Z,6.68
2017-12-21T16:48:18.280Z,6.65
2017-12-21T16:50:11.838Z,6.65
2017-12-21T16:51:12.463Z,6.67
2017-12-21T16:53:03.762Z,6.64
2017-12-21T16:54:03.401Z,6.63
2017-12-21T16:55:56.457Z,6.63
2017-12-21T16:56:56.313Z,6.68
2017-12-21T16:58:50.033Z,6.71
2017-12-21T16:59:49.594Z,6.64
2017-12-21T17:01:42.392Z,6.68
2017-12-21T17:02:42.597Z,6.65
2017-12-21T17:04:36.183Z,6.63
2017-12-21T17:05:37.020Z,6.67
2017-12-21T17:07:28.798Z,6.71
2017-12-21T17:08:29.439Z,6.67
2017-12-21T17:10:22.072Z,6.71
2017-12-21T17:11:22.083Z,6.61
2017-12-21T17:13:18.812Z,6.67
2017-12-21T17:14:17.637Z,6.63
2017-12-21T17:16:11.476Z,6.63
2017-12-21T17:17:11.062Z,6.71
2017-12-21T17:19:03.960Z,6.71
2017-12-21T17:20:05.556Z,6.65
2017-12-21T17:21:59.279Z,6.71
2017-12-21T17:22:59.316Z,6.71
2017-12-21T17:24:52.412Z,6.64
2017-12-21T17:25:53.016Z,6.74
2017-12-21T17:27:46.520Z,6.68
2017-12-21T17:28:45.617Z,6.65
2017-12-21T17:30:38.699Z,6.64
2017-12-21T17:31:38.246Z,6.65
2017-12-21T17:33:31.734Z,6.68
2017-12-21T17:34:31.354Z,6.64
2017-12-21T17:36:24.413Z,6.65
2017-12-21T17:37:24.988Z,6.60
2017-12-21T17:39:17.876Z,6.67
2017-12-21T17:40:17.750Z,6.71
2017-12-21T17:42:11.970Z,6.63
2017-12-21T17:43:11.425Z,6.63
2017-12-21T17:45:05.398Z,6.65
2017-12-21T17:46:05.252Z,6.64
2017-12-21T17:47:58.020Z,6.65
2017-12-21T17:48:59.161Z,6.64
2017-12-21T17:50:50.746Z,6.63
2017-12-21T17:51:50.867Z,6.67
2017-12-21T17:53:44.298Z,6.64
2017-12-21T17:54:43.910Z,6.61
2017-12-21T17:56:38.222Z,6.60
2017-12-21T17:57:39.476Z,6.67
2017-12-21T17:59:37.438Z,6.64
2017-12-21T18:00:36.995Z,6.64
2017-12-21T18:02:30.594Z,6.73
2017-12-21T18:03:31.077Z,6.61
2017-12-21T18:05:24.954Z,6.70
2017-12-21T18:06:24.783Z,6.57
2017-12-21T18:08:17.412Z,6.55
2017-12-21T18:11:23.602Z,6.60
2017-12-21T18:12:23.371Z,6.56
2017-12-21T18:14:16.146Z,6.65
2017-12-21T18:15:16.208Z,6.60
2017-12-21T18:17:08.327Z,6.63
2017-12-21T18:18:09.581Z,6.64
2017-12-21T18:20:01.458Z,6.56
2017-12-21T18:21:03.583Z,6.67
2017-12-21T18:22:57.031Z,6.61
2017-12-21T18:23:55.073Z,6.55
2017-12-21T18:25:47.453Z,6.65
2017-12-21T18:26:47.410Z,6.57
2017-12-21T18:28:41.431Z,6.55
2017-12-21T18:29:43.292Z,6.63
2017-12-21T18:31:37.020Z,6.61
2017-12-21T18:32:35.338Z,6.50
2017-12-21T18:34:28.239Z,6.52
2017-12-21T18:35:29.601Z,6.55
2017-12-21T18:37:21.626Z,6.57
2017-12-21T19:59:59.953Z,6.21
2017-12-21T20:02:51.497Z,6.11
2017-12-21T20:03:51.863Z,6.13
2017-12-21T20:05:46.491Z,6.11
2017-12-21T20:06:45.362Z,6.11
2017-12-21T20:08:40.444Z,6.12
2017-12-21T20:09:39.846Z,5.98
2017-12-21T20:11:35.841Z,6.08
2017-12-21T20:12:32.134Z,6.06
2017-12-21T20:14:28.260Z,6.11
2017-12-21T20:15:28.239Z,6.05
2017-12-21T20:17:21.512Z,6.05
2017-12-21T20:18:21.676Z,6.05
2017-12-21T20:20:24.368Z,5.95
2017-12-21T20:21:25.371Z,5.98
2017-12-21T20:23:19.640Z,6.05
2017-12-21T20:24:19.455Z,6.03
2017-12-21T20:26:12.644Z,5.93
2017-12-21T20:27:11.770Z,6.02
2017-12-21T20:29:06.918Z,5.97
2017-12-21T20:30:07.244Z,6.02
2017-12-21T20:31:59.667Z,5.94
2017-12-21T20:33:01.859Z,5.98
2017-12-21T20:35:11.438Z,6.05
2017-12-21T20:36:03.793Z,5.93
2017-12-21T20:37:56.718Z,5.91
2017-12-21T20:38:56.373Z,5.94
2017-12-21T20:40:51.522Z,5.88
2017-12-21T20:41:51.062Z,5.91
2017-12-21T20:43:44.735Z,5.91
2017-12-21T20:44:45.354Z,5.88
2017-12-21T20:46:37.350Z,5.88
2017-12-21T20:47:37.309Z,5.87
2017-12-21T20:49:31.088Z,5.85
2017-12-21T20:52:29.513Z,5.90
2017-12-21T20:53:23.275Z,5.94